Hovedside
METAR-TAF:

METAR-TAF

Lufthavner :

Røros, Norge

Røros lufthavn

breddegrad: 62-35N, lengdegrad: 011-21E, høyde over havet: 626 m

Gjeldene værobservasjon

Denne rapporten ble laget for 39 minutter siden, klokken 11:20 UTC
Vind 7 kt fra Sør-sørøst
Temperatur 3°C
Luftfuktighet 81%
Trykk 1014 hPa
Sikt 10 km eller mer

METAR: ENRO 221120Z AUTO 16007KT 9999NDV OVC021/// 03/M00 Q1014

Tid: 13:59 (11:59 UTC)

Varsel

Denne rapporten ble laget for 59 minutter siden, klokken 11:00 UTC
Varsel gyldig fra 22. klokken 12 UTC til 22. klokken 18 UTC
Vind 10 kt fra Øst-sørøst
Sikt 10 km eller mer
Brutte skyer i en høyde av 2500 ft

TAF: ENRO 221100Z 2212/2218 12010KT 9999 BKN025

Værobservasjoner og værvarsel for over 4000 flyplasser (METAR- og TAF-rapporter).

Tilgjengelige stasjoner er representert av de røde og gule prikkene på kartet.

Hold musepekeren over prikken for å se navnet på stasjonen.

Klikk så for å se værobservasjoner og -varsler.

For å forandre kartet kan du klikke på den grønne knappen med svart kryss for å zoome inn, på den grønne knappen med strek for å zoome ut, eller på de grønne pilene for å se tilstøtende kart.


METAR-TAF: